Pisgah Forest, NC (28768)

11:18 AM EDT del 31 Agosto 2015 (GMT -0400)
Little River | | Change Station
CLOSE
Current Station
Stazione meteo personale
Location: Pisgah Forest, NC
Altitudine: 2116 ft
Stazioni meteo nelle vicinanze

Alt. 2116 ft 35.24 °N, 82.64 °W | Updated 14 seconds ago

Parzialmente nuvoloso
Parzialmente nuvoloso
70.3 °F
Sembra 70.3 °F
N
0.0
Vento Variabile Vento da ENE
Gusts 0.0 mph

Oggi
Massima -- | Minima -- °F
--% Possibilità di precip.
Ieri
Massima -- | Minima -- °F
Precip. -- in
7:02 AM 7:59 PM
Gobba a levante, 95% visible
Pressione 30.14 in
Visibilità 10.0 miglia
Nuvole Nubi sparse 1500 ft
Punto di rugiada 67 °F
Umidità 90%
Piovosità in
Spessore del manto nevoso Non disponibile.
Raggi UV 5 fuori da 12
Polline 8.40 fuori da 12
Qualità dell'aria Non disponibile.
Flu Activity Non disponibile.
METAR KAVL 311454Z 35007KT 10SM SCT015 22/16 A3021 RMK AO2 SLP206 T02220161 53005
Pressione 30.14 in
Visibilità 10.0 miglia
Nuvole Nubi sparse 1500 ft
Punto di rugiada 67 °F
Umidità 90%
Piovosità in
Spessore del manto nevoso Non disponibile.
Raggi UV 5 fuori da 12
Polline 8.40 fuori da 12
Qualità dell'aria Non disponibile.
Flu Activity Non disponibile.
METAR KAVL 311454Z 35007KT 10SM SCT015 22/16 A3021 RMK AO2 SLP206 T02220161 53005

10-Day Weather Forecast

×

Almanac

Astronomia

Aug. 31, 2015 Alba Tramonto
Ora attuale
Crepuscolo civile
Crepuscolo nautico
Crepuscolo astronomico
Luna
Estensione della luce visibile
Lunghezza del giorno
Tomorrow will be .
, % of the Moon is Illuminated

Gli estremi di oggi

State Highs State Lows

Community

WunderPhotos

Upload Photos

1,851,278 foto caricate!

WunderBlogs® & News

Nearby

Qualità dell'aria

  Qualità dell'aria Indice AQ Inquinante
Not available.

Profondità neve

Stazione Profondità Altitudine

Attività sismica

Città  Distanza Mag. Data & Ora
Minimo Magnitudo Mostrato è 2.5.

Temperature delle acque costiere

Località Temperatura

Stations

Stazioni meteo nelle vicinanze

Ubicazione della stazione Temp. Raffreddamento del vento Punto di rugiada Umidità Vento Precip. Alt. Aggiornato Tipo